sensor_id;sensor_type;location;lat;lon;timestamp;pressure;altitude;pressure_sealevel;temperature;humidity
11912;BME280;6016;41.928;25.556;2024-01-16T00:02:02;97741.41;;;4.69;67.18
11912;BME280;6016;41.928;25.556;2024-01-16T00:04:29;97733.28;;;4.72;66.20
11912;BME280;6016;41.928;25.556;2024-01-16T00:06:56;97695.19;;;4.49;66.38
11912;BME280;6016;41.928;25.556;2024-01-16T00:09:25;97728.88;;;4.72;66.73
11912;BME280;6016;41.928;25.556;2024-01-16T00:11:52;97740.16;;;4.63;66.83
11912;BME280;6016;41.928;25.556;2024-01-16T00:14:19;97714.84;;;4.44;66.77
11912;BME280;6016;41.928;25.556;2024-01-16T00:16:46;97747.69;;;4.76;67.04
11912;BME280;6016;41.928;25.556;2024-01-16T00:19:13;97744.28;;;4.75;66.63
11912;BME280;6016;41.928;25.556;2024-01-16T00:21:41;97711.28;;;4.55;67.08
11912;BME280;6016;41.928;25.556;2024-01-16T00:24:08;97698.91;;;4.47;67.23
11912;BME280;6016;41.928;25.556;2024-01-16T00:26:37;97723.78;;;4.61;66.94
11912;BME280;6016;41.928;25.556;2024-01-16T00:29:04;97734.81;;;4.74;67.02
11912;BME280;6016;41.928;25.556;2024-01-16T00:31:31;97651.19;;;4.25;67.59
11912;BME280;6016;41.928;25.556;2024-01-16T00:33:58;97728.47;;;4.77;67.93
11912;BME280;6016;41.928;25.556;2024-01-16T00:36:25;97728.63;;;4.75;68.14
11912;BME280;6016;41.928;25.556;2024-01-16T00:38:52;97726.69;;;4.77;67.58
11912;BME280;6016;41.928;25.556;2024-01-16T00:41:19;97722.44;;;4.76;68.01
11912;BME280;6016;41.928;25.556;2024-01-16T00:43:47;97666.88;;;4.45;68.33
11912;BME280;6016;41.928;25.556;2024-01-16T00:46:14;97682.53;;;4.64;68.36
11912;BME280;6016;41.928;25.556;2024-01-16T00:48:41;97620.56;;;4.27;68.34
11912;BME280;6016;41.928;25.556;2024-01-16T00:51:08;97660.69;;;4.56;68.38
11912;BME280;6016;41.928;25.556;2024-01-16T00:53:40;97668.69;;;4.64;68.10
11912;BME280;6016;41.928;25.556;2024-01-16T00:56:07;97698.91;;;4.86;68.85
11912;BME280;6016;41.928;25.556;2024-01-16T00:58:34;97704.00;;;4.88;67.99
11912;BME280;6016;41.928;25.556;2024-01-16T01:01:02;97705.91;;;4.86;67.76
11912;BME280;6016;41.928;25.556;2024-01-16T01:03:29;97660.00;;;4.54;67.27
11912;BME280;6016;41.928;25.556;2024-01-16T01:05:57;97677.47;;;4.73;67.50
11912;BME280;6016;41.928;25.556;2024-01-16T01:08:24;97687.09;;;4.82;66.58
11912;BME280;6016;41.928;25.556;2024-01-16T01:10:51;97693.53;;;4.78;66.40
11912;BME280;6016;41.928;25.556;2024-01-16T01:13:18;97671.00;;;4.67;67.04
11912;BME280;6016;41.928;25.556;2024-01-16T01:15:45;97687.91;;;4.83;66.57
11912;BME280;6016;41.928;25.556;2024-01-16T01:18:13;97693.13;;;4.83;66.27
11912;BME280;6016;41.928;25.556;2024-01-16T01:20:40;97519.59;;;3.69;66.52
11912;BME280;6016;41.928;25.556;2024-01-16T01:23:07;97687.09;;;4.82;66.53
11912;BME280;6016;41.928;25.556;2024-01-16T01:25:34;97686.25;;;4.82;66.83
11912;BME280;6016;41.928;25.556;2024-01-16T01:28:01;97680.34;;;4.79;67.22
11912;BME280;6016;41.928;25.556;2024-01-16T01:30:28;97686.66;;;4.77;67.14
11912;BME280;6016;41.928;25.556;2024-01-16T01:32:55;97679.94;;;4.74;67.02
11912;BME280;6016;41.928;25.556;2024-01-16T01:35:24;97664.41;;;4.63;67.46
11912;BME280;6016;41.928;25.556;2024-01-16T01:37:51;97667.16;;;4.61;67.98
11912;BME280;6016;41.928;25.556;2024-01-16T01:40:18;97668.69;;;4.64;67.84
11912;BME280;6016;41.928;25.556;2024-01-16T01:42:45;97643.13;;;4.48;68.14
11912;BME280;6016;41.928;25.556;2024-01-16T01:45:12;97656.97;;;4.48;67.79
11912;BME280;6016;41.928;25.556;2024-01-16T01:47:40;97694.09;;;4.82;68.27
11912;BME280;6016;41.928;25.556;2024-01-16T01:50:08;97684.88;;;4.77;67.56
11912;BME280;6016;41.928;25.556;2024-01-16T01:52:38;97679.78;;;4.76;68.00
11912;BME280;6016;41.928;25.556;2024-01-16T01:55:10;97669.75;;;4.71;67.46
11912;BME280;6016;41.928;25.556;2024-01-16T01:57:37;97655.72;;;4.72;67.44
11912;BME280;6016;41.928;25.556;2024-01-16T02:00:06;97585.28;;;4.23;67.68
11912;BME280;6016;41.928;25.556;2024-01-16T02:02:34;97656.97;;;4.68;66.63
11912;BME280;6016;41.928;25.556;2024-01-16T02:05:01;97595.03;;;4.31;66.72
11912;BME280;6016;41.928;25.556;2024-01-16T02:07:29;97654.63;;;4.75;67.72
11912;BME280;6016;41.928;25.556;2024-01-16T02:09:59;97658.91;;;4.76;67.08
11912;BME280;6016;41.928;25.556;2024-01-16T02:12:27;97650.25;;;4.75;67.02
11912;BME280;6016;41.928;25.556;2024-01-16T02:14:54;97615.91;;;4.50;67.04
11912;BME280;6016;41.928;25.556;2024-01-16T02:17:21;97651.63;;;4.70;66.88
11912;BME280;6016;41.928;25.556;2024-01-16T02:19:48;97646.53;;;4.68;66.90
11912;BME280;6016;41.928;25.556;2024-01-16T02:22:18;97619.06;;;4.44;67.01
11912;BME280;6016;41.928;25.556;2024-01-16T02:24:48;97603.94;;;4.28;67.90
11912;BME280;6016;41.928;25.556;2024-01-16T02:27:15;97548.16;;;3.90;67.45
11912;BME280;6016;41.928;25.556;2024-01-16T02:29:42;97514.09;;;3.52;66.91
11912;BME280;6016;41.928;25.556;2024-01-16T02:32:11;97685.56;;;4.50;66.70
11912;BME280;6016;41.928;25.556;2024-01-16T02:34:40;97651.75;;;4.29;66.96
11912;BME280;6016;41.928;25.556;2024-01-16T02:37:07;97694.75;;;4.54;66.94
11912;BME280;6016;41.928;25.556;2024-01-16T02:39:34;97713.59;;;4.58;67.20
11912;BME280;6016;41.928;25.556;2024-01-16T02:42:02;97663.44;;;4.34;67.70
11912;BME280;6016;41.928;25.556;2024-01-16T02:44:29;97702.19;;;4.59;67.75
11912;BME280;6016;41.928;25.556;2024-01-16T02:46:56;97685.97;;;4.45;67.55
11912;BME280;6016;41.928;25.556;2024-01-16T02:49:24;97538.94;;;3.56;68.33
11912;BME280;6016;41.928;25.556;2024-01-16T02:51:51;97627.72;;;4.15;67.75
11912;BME280;6016;41.928;25.556;2024-01-16T02:54:19;97531.22;;;3.45;67.52
11912;BME280;6016;41.928;25.556;2024-01-16T02:56:46;97597.03;;;3.68;67.44
11912;BME280;6016;41.928;25.556;2024-01-16T02:59:15;97433.06;;;2.53;67.18
11912;BME280;6016;41.928;25.556;2024-01-16T03:01:42;97714.28;;;4.30;67.68
11912;BME280;6016;41.928;25.556;2024-01-16T03:04:09;97389.75;;;2.11;66.77
11912;BME280;6016;41.928;25.556;2024-01-16T03:06:37;97485.44;;;2.91;67.50
11912;BME280;6016;41.928;25.556;2024-01-16T03:09:04;97609.69;;;3.42;66.82
11912;BME280;6016;41.928;25.556;2024-01-16T03:11:32;97635.47;;;3.45;66.62
11912;BME280;6016;41.928;25.556;2024-01-16T03:13:59;97350.41;;;1.52;69.39
11912;BME280;6016;41.928;25.556;2024-01-16T03:16:28;97733.13;;;3.93;67.95
11912;BME280;6016;41.928;25.556;2024-01-16T03:18:55;97616.19;;;2.95;68.12
11912;BME280;6016;41.928;25.556;2024-01-16T03:21:23;97729.09;;;3.89;68.52
11912;BME280;6016;41.928;25.556;2024-01-16T03:23:50;97717.03;;;3.98;67.83
11912;BME280;6016;41.928;25.556;2024-01-16T03:26:17;97678.16;;;3.75;68.48
11912;BME280;6016;41.928;25.556;2024-01-16T03:28:44;97721.19;;;4.00;67.66
11912;BME280;6016;41.928;25.556;2024-01-16T03:31:12;97657.19;;;3.55;67.37
11912;BME280;6016;41.928;25.556;2024-01-16T03:33:41;97670.03;;;3.68;68.05
11912;BME280;6016;41.928;25.556;2024-01-16T03:36:09;97486.03;;;2.43;68.39
11912;BME280;6016;41.928;25.556;2024-01-16T03:38:36;97665.38;;;3.41;68.11
11912;BME280;6016;41.928;25.556;2024-01-16T03:41:04;97723.44;;;3.74;68.35
11912;BME280;6016;41.928;25.556;2024-01-16T03:43:33;97599.44;;;2.88;68.84
11912;BME280;6016;41.928;25.556;2024-01-16T03:46:00;97603.31;;;2.93;68.47
11912;BME280;6016;41.928;25.556;2024-01-16T03:48:27;97648.94;;;3.19;68.57
11912;BME280;6016;41.928;25.556;2024-01-16T03:50:56;97539.38;;;2.58;68.38
11912;BME280;6016;41.928;25.556;2024-01-16T03:53:23;97751.63;;;3.90;68.76
11912;BME280;6016;41.928;25.556;2024-01-16T03:55:51;97753.56;;;3.98;67.66
11912;BME280;6016;41.928;25.556;2024-01-16T03:58:18;97551.94;;;2.74;67.41
11912;BME280;6016;41.928;25.556;2024-01-16T04:00:45;97646.28;;;3.40;67.41
11912;BME280;6016;41.928;25.556;2024-01-16T04:03:13;97659.09;;;3.43;67.31
11912;BME280;6016;41.928;25.556;2024-01-16T04:05:40;97612.00;;;3.04;66.79
11912;BME280;6016;41.928;25.556;2024-01-16T04:08:08;97527.13;;;2.49;67.07
11912;BME280;6016;41.928;25.556;2024-01-16T04:10:35;97722.00;;;3.60;67.29
11912;BME280;6016;41.928;25.556;2024-01-16T04:13:03;97703.41;;;3.43;67.43
11912;BME280;6016;41.928;25.556;2024-01-16T04:15:30;97722.25;;;3.57;67.49
11912;BME280;6016;41.928;25.556;2024-01-16T04:17:57;97797.41;;;4.04;67.11
11912;BME280;6016;41.928;25.556;2024-01-16T04:20:24;97753.28;;;3.60;67.87
11912;BME280;6016;41.928;25.556;2024-01-16T04:22:51;97718.72;;;3.36;69.31
11912;BME280;6016;41.928;25.556;2024-01-16T04:25:20;97810.75;;;4.11;70.19
11912;BME280;6016;41.928;25.556;2024-01-16T04:27:47;97820.25;;;4.21;73.35
11912;BME280;6016;41.928;25.556;2024-01-16T04:30:14;97810.56;;;4.33;72.55
11912;BME280;6016;41.928;25.556;2024-01-16T04:32:41;97772.84;;;4.06;72.49
11912;BME280;6016;41.928;25.556;2024-01-16T04:35:08;97615.72;;;3.11;72.85
11912;BME280;6016;41.928;25.556;2024-01-16T04:37:36;97574.91;;;2.90;72.72
11912;BME280;6016;41.928;25.556;2024-01-16T04:40:04;97720.75;;;3.64;72.15
11912;BME280;6016;41.928;25.556;2024-01-16T04:42:33;97806.84;;;4.36;69.76
11912;BME280;6016;41.928;25.556;2024-01-16T04:45:00;97769.56;;;4.14;70.85
11912;BME280;6016;41.928;25.556;2024-01-16T04:47:27;97835.94;;;4.62;70.20
11912;BME280;6016;41.928;25.556;2024-01-16T04:49:54;97826.69;;;4.48;71.66
11912;BME280;6016;41.928;25.556;2024-01-16T04:52:21;97846.09;;;4.56;70.34
11912;BME280;6016;41.928;25.556;2024-01-16T04:54:48;97757.88;;;3.77;68.39
11912;BME280;6016;41.928;25.556;2024-01-16T04:57:15;97767.16;;;3.91;69.72
11912;BME280;6016;41.928;25.556;2024-01-16T04:59:44;97862.38;;;4.38;68.91
11912;BME280;6016;41.928;25.556;2024-01-16T05:02:11;97759.78;;;3.75;67.81
11912;BME280;6016;41.928;25.556;2024-01-16T05:04:39;97816.94;;;4.10;69.72
11912;BME280;6016;41.928;25.556;2024-01-16T05:07:06;97874.63;;;4.47;68.47
11912;BME280;6016;41.928;25.556;2024-01-16T05:09:33;97859.25;;;4.44;67.62
11912;BME280;6016;41.928;25.556;2024-01-16T05:12:01;97761.22;;;3.79;67.18
11912;BME280;6016;41.928;25.556;2024-01-16T05:14:28;97811.91;;;3.97;67.46
11912;BME280;6016;41.928;25.556;2024-01-16T05:16:57;97649.97;;;3.06;67.16
11912;BME280;6016;41.928;25.556;2024-01-16T05:19:24;97859.63;;;4.40;67.65
11912;BME280;6016;41.928;25.556;2024-01-16T05:21:51;97682.34;;;3.04;68.27
11912;BME280;6016;41.928;25.556;2024-01-16T05:24:18;97816.28;;;3.65;68.69
11912;BME280;6016;41.928;25.556;2024-01-16T05:26:45;97749.34;;;3.44;68.55
11912;BME280;6016;41.928;25.556;2024-01-16T05:29:12;97720.94;;;3.20;68.46
11912;BME280;6016;41.928;25.556;2024-01-16T05:31:40;97830.91;;;3.77;68.32
11912;BME280;6016;41.928;25.556;2024-01-16T05:34:10;97893.25;;;4.02;68.54
11912;BME280;6016;41.928;25.556;2024-01-16T05:36:37;97810.78;;;3.26;69.03
11912;BME280;6016;41.928;25.556;2024-01-16T05:39:04;97833.59;;;3.12;70.22
11912;BME280;6016;41.928;25.556;2024-01-16T05:41:33;97721.06;;;2.20;70.99
11912;BME280;6016;41.928;25.556;2024-01-16T05:44:00;97897.78;;;3.02;71.65
11912;BME280;6016;41.928;25.556;2024-01-16T05:46:29;97900.16;;;3.05;71.77
11912;BME280;6016;41.928;25.556;2024-01-16T05:48:57;97964.50;;;3.37;72.15
11912;BME280;6016;41.928;25.556;2024-01-16T05:51:27;97973.22;;;3.15;72.26
11912;BME280;6016;41.928;25.556;2024-01-16T05:53:54;97894.56;;;2.65;72.68
11912;BME280;6016;41.928;25.556;2024-01-16T05:56:21;97970.78;;;3.34;72.18
11912;BME280;6016;41.928;25.556;2024-01-16T05:58:48;98004.44;;;3.37;72.28
11912;BME280;6016;41.928;25.556;2024-01-16T06:01:15;97983.69;;;3.47;72.25
11912;BME280;6016;41.928;25.556;2024-01-16T06:03:42;97881.13;;;2.81;72.18
11912;BME280;6016;41.928;25.556;2024-01-16T06:06:12;97997.91;;;3.55;72.07
11912;BME280;6016;41.928;25.556;2024-01-16T06:08:40;97988.81;;;3.37;71.89
11912;BME280;6016;41.928;25.556;2024-01-16T06:11:07;97966.53;;;3.22;71.82
11912;BME280;6016;41.928;25.556;2024-01-16T06:13:36;97955.81;;;3.04;72.32
11912;BME280;6016;41.928;25.556;2024-01-16T06:16:05;98080.00;;;3.60;71.65
11912;BME280;6016;41.928;25.556;2024-01-16T06:18:33;97876.19;;;2.67;72.73
11912;BME280;6016;41.928;25.556;2024-01-16T06:21:01;97979.00;;;3.30;71.54
11912;BME280;6016;41.928;25.556;2024-01-16T06:23:28;98050.69;;;3.79;71.78
11912;BME280;6016;41.928;25.556;2024-01-16T06:25:57;97961.84;;;3.16;70.94
11912;BME280;6016;41.928;25.556;2024-01-16T06:28:24;98090.50;;;3.93;71.15
11912;BME280;6016;41.928;25.556;2024-01-16T06:30:51;97997.56;;;3.36;69.53
11912;BME280;6016;41.928;25.556;2024-01-16T06:33:19;98024.34;;;3.27;69.26
11912;BME280;6016;41.928;25.556;2024-01-16T06:35:46;97977.38;;;3.06;69.23
11912;BME280;6016;41.928;25.556;2024-01-16T06:38:13;97944.72;;;2.67;68.41
11912;BME280;6016;41.928;25.556;2024-01-16T06:40:41;98053.22;;;3.47;68.63
11912;BME280;6016;41.928;25.556;2024-01-16T06:43:09;98139.97;;;4.81;65.71
11912;BME280;6016;41.928;25.556;2024-01-16T06:45:40;97893.28;;;3.48;65.46
11912;BME280;6016;41.928;25.556;2024-01-16T06:48:08;97874.91;;;3.17;65.02
11912;BME280;6016;41.928;25.556;2024-01-16T06:50:35;98031.78;;;3.99;64.06
11912;BME280;6016;41.928;25.556;2024-01-16T06:53:02;98142.44;;;4.61;63.79
11912;BME280;6016;41.928;25.556;2024-01-16T06:55:30;98136.25;;;4.62;64.52
11912;BME280;6016;41.928;25.556;2024-01-16T06:57:57;97878.75;;;3.01;63.23
11912;BME280;6016;41.928;25.556;2024-01-16T07:00:26;98099.69;;;4.41;64.67
11912;BME280;6016;41.928;25.556;2024-01-16T07:02:53;97993.97;;;3.60;63.46
11912;BME280;6016;41.928;25.556;2024-01-16T07:05:20;98035.13;;;3.89;63.41
11912;BME280;6016;41.928;25.556;2024-01-16T07:07:47;98062.63;;;3.82;64.14
11912;BME280;6016;41.928;25.556;2024-01-16T07:10:15;98177.25;;;4.62;62.32
11912;BME280;6016;41.928;25.556;2024-01-16T07:12:45;98168.94;;;4.78;63.12
11912;BME280;6016;41.928;25.556;2024-01-16T07:15:12;98085.47;;;4.34;61.83
11912;BME280;6016;41.928;25.556;2024-01-16T07:17:42;98169.41;;;5.04;62.70
11912;BME280;6016;41.928;25.556;2024-01-16T07:20:10;98028.09;;;4.22;62.35
11912;BME280;6016;41.928;25.556;2024-01-16T07:22:38;97909.00;;;3.58;60.88
11912;BME280;6016;41.928;25.556;2024-01-16T07:25:06;98120.72;;;5.03;60.97
11912;BME280;6016;41.928;25.556;2024-01-16T07:27:33;98185.44;;;5.63;60.29
11912;BME280;6016;41.928;25.556;2024-01-16T07:30:00;98193.13;;;5.65;60.32
11912;BME280;6016;41.928;25.556;2024-01-16T07:32:27;98177.44;;;5.65;58.92
11912;BME280;6016;41.928;25.556;2024-01-16T07:34:56;98104.69;;;5.18;60.64
11912;BME280;6016;41.928;25.556;2024-01-16T07:37:23;98207.03;;;5.97;58.62
11912;BME280;6016;41.928;25.556;2024-01-16T07:39:50;97951.22;;;4.58;58.15
11912;BME280;6016;41.928;25.556;2024-01-16T07:42:18;98222.88;;;6.36;57.80
11912;BME280;6016;41.928;25.556;2024-01-16T07:44:45;98219.34;;;6.57;56.85
11912;BME280;6016;41.928;25.556;2024-01-16T07:47:12;98060.69;;;5.64;57.90
11912;BME280;6016;41.928;25.556;2024-01-16T07:49:39;98153.28;;;6.43;57.90
11912;BME280;6016;41.928;25.556;2024-01-16T07:52:09;98115.34;;;6.08;56.65
11912;BME280;6016;41.928;25.556;2024-01-16T07:54:37;98245.28;;;6.80;58.55
11912;BME280;6016;41.928;25.556;2024-01-16T07:57:04;98130.94;;;6.29;59.19
11912;BME280;6016;41.928;25.556;2024-01-16T07:59:32;98178.75;;;7.00;57.56
11912;BME280;6016;41.928;25.556;2024-01-16T08:01:59;98259.59;;;7.54;56.46
11912;BME280;6016;41.928;25.556;2024-01-16T08:04:26;98137.69;;;6.71;57.41
11912;BME280;6016;41.928;25.556;2024-01-16T08:06:53;98140.84;;;6.85;57.55
11912;BME280;6016;41.928;25.556;2024-01-16T08:09:22;98261.50;;;8.00;59.21
11912;BME280;6016;41.928;25.556;2024-01-16T08:11:49;98208.91;;;7.92;57.00
11912;BME280;6016;41.928;25.556;2024-01-16T08:14:17;97859.94;;;5.76;57.88
11912;BME280;6016;41.928;25.556;2024-01-16T08:16:44;98182.31;;;7.77;57.85
11912;BME280;6016;41.928;25.556;2024-01-16T08:19:11;98279.00;;;8.57;56.86
11912;BME280;6016;41.928;25.556;2024-01-16T08:21:39;98046.69;;;7.67;58.24
11912;BME280;6016;41.928;25.556;2024-01-16T08:24:06;98076.91;;;8.54;55.70
11912;BME280;6016;41.928;25.556;2024-01-16T08:26:34;98297.06;;;10.22;53.69
11912;BME280;6016;41.928;25.556;2024-01-16T08:29:02;98194.22;;;9.18;53.29
11912;BME280;6016;41.928;25.556;2024-01-16T08:31:30;98306.06;;;9.22;54.52
11912;BME280;6016;41.928;25.556;2024-01-16T08:33:58;98179.97;;;8.01;56.13
11912;BME280;6016;41.928;25.556;2024-01-16T08:36:25;98347.63;;;8.82;56.73
11912;BME280;6016;41.928;25.556;2024-01-16T08:38:52;98341.22;;;8.66;57.78
11912;BME280;6016;41.928;25.556;2024-01-16T08:41:20;98092.81;;;6.94;57.41
11912;BME280;6016;41.928;25.556;2024-01-16T08:43:49;98351.28;;;8.33;58.17
11912;BME280;6016;41.928;25.556;2024-01-16T08:46:16;98076.63;;;6.41;59.24
11912;BME280;6016;41.928;25.556;2024-01-16T08:48:45;98356.94;;;7.91;59.95
11912;BME280;6016;41.928;25.556;2024-01-16T08:51:12;98171.75;;;6.81;59.84
11912;BME280;6016;41.928;25.556;2024-01-16T08:53:39;98346.84;;;7.76;60.71
11912;BME280;6016;41.928;25.556;2024-01-16T08:56:07;98081.19;;;6.19;61.49
11912;BME280;6016;41.928;25.556;2024-01-16T08:58:35;98315.78;;;7.71;61.55
11912;BME280;6016;41.928;25.556;2024-01-16T09:01:05;98265.81;;;7.43;61.85
11912;BME280;6016;41.928;25.556;2024-01-16T09:03:32;98095.09;;;6.30;61.86
11912;BME280;6016;41.928;25.556;2024-01-16T09:06:00;98292.59;;;7.47;61.94
11912;BME280;6016;41.928;25.556;2024-01-16T09:08:27;98079.94;;;6.04;62.09
11912;BME280;6016;41.928;25.556;2024-01-16T09:10:54;98213.41;;;6.74;62.39
11912;BME280;6016;41.928;25.556;2024-01-16T09:13:22;98369.09;;;7.72;62.69
11912;BME280;6016;41.928;25.556;2024-01-16T09:15:49;98235.09;;;6.86;63.17
11912;BME280;6016;41.928;25.556;2024-01-16T09:18:18;98372.53;;;7.82;63.00
11912;BME280;6016;41.928;25.556;2024-01-16T09:20:45;98293.56;;;7.46;63.42
11912;BME280;6016;41.928;25.556;2024-01-16T09:23:12;98287.44;;;7.75;63.65
11912;BME280;6016;41.928;25.556;2024-01-16T09:25:39;98392.56;;;8.61;62.73
11912;BME280;6016;41.928;25.556;2024-01-16T09:28:07;98399.06;;;8.84;62.09
11912;BME280;6016;41.928;25.556;2024-01-16T09:30:34;98347.19;;;8.49;62.64
11912;BME280;6016;41.928;25.556;2024-01-16T09:33:01;98237.38;;;7.86;63.10
11912;BME280;6016;41.928;25.556;2024-01-16T09:35:31;98407.38;;;8.90;63.44
11912;BME280;6016;41.928;25.556;2024-01-16T09:37:58;98345.28;;;8.79;62.54
11912;BME280;6016;41.928;25.556;2024-01-16T09:40:26;98203.84;;;7.80;62.79
11912;BME280;6016;41.928;25.556;2024-01-16T09:42:54;98172.84;;;7.56;63.35
11912;BME280;6016;41.928;25.556;2024-01-16T09:45:21;98330.88;;;8.45;63.96
11912;BME280;6016;41.928;25.556;2024-01-16T09:47:50;98395.13;;;8.98;64.62
11912;BME280;6016;41.928;25.556;2024-01-16T09:50:18;98334.56;;;8.62;64.03
11912;BME280;6016;41.928;25.556;2024-01-16T09:52:47;98286.50;;;8.14;64.39
11912;BME280;6016;41.928;25.556;2024-01-16T09:55:14;98130.59;;;7.01;65.08
11912;BME280;6016;41.928;25.556;2024-01-16T09:57:45;98362.59;;;8.34;65.45
11912;BME280;6016;41.928;25.556;2024-01-16T10:00:13;98335.22;;;7.98;65.92
11912;BME280;6016;41.928;25.556;2024-01-16T10:02:41;98425.22;;;8.58;65.99
11912;BME280;6016;41.928;25.556;2024-01-16T10:05:10;98366.09;;;8.24;65.41
11912;BME280;6016;41.928;25.556;2024-01-16T10:07:39;98295.72;;;7.80;64.89
11912;BME280;6016;41.928;25.556;2024-01-16T10:10:08;98158.50;;;7.02;64.02
11912;BME280;6016;41.928;25.556;2024-01-16T10:12:37;98352.66;;;8.27;63.73
11912;BME280;6016;41.928;25.556;2024-01-16T10:15:06;98167.44;;;7.10;62.78
11912;BME280;6016;41.928;25.556;2024-01-16T10:17:38;98447.75;;;8.98;62.18
11912;BME280;6016;41.928;25.556;2024-01-16T10:20:06;98433.34;;;9.21;60.56
11912;BME280;6016;41.928;25.556;2024-01-16T10:22:39;98459.81;;;9.65;60.63
11912;BME280;6016;41.928;25.556;2024-01-16T10:25:09;98459.66;;;9.85;59.60
11912;BME280;6016;41.928;25.556;2024-01-16T10:27:38;98462.81;;;10.07;58.12
11912;BME280;6016;41.928;25.556;2024-01-16T10:30:06;98362.94;;;9.51;59.08
11912;BME280;6016;41.928;25.556;2024-01-16T10:32:35;98177.75;;;8.53;59.16
11912;BME280;6016;41.928;25.556;2024-01-16T10:35:04;98354.03;;;9.70;58.96
11912;BME280;6016;41.928;25.556;2024-01-16T10:37:40;98098.63;;;8.46;58.82
11912;BME280;6016;41.928;25.556;2024-01-16T10:40:10;98262.84;;;9.69;58.46
11912;BME280;6016;41.928;25.556;2024-01-16T10:42:37;98438.56;;;11.17;55.84
11912;BME280;6016;41.928;25.556;2024-01-16T10:45:06;98346.88;;;10.68;55.83
11912;BME280;6016;41.928;25.556;2024-01-16T10:47:34;98439.41;;;11.18;56.34
11912;BME280;6016;41.928;25.556;2024-01-16T10:50:04;98164.69;;;9.24;54.54
11912;BME280;6016;41.928;25.556;2024-01-16T10:52:35;98361.03;;;10.32;53.34
11912;BME280;6016;41.928;25.556;2024-01-16T10:55:10;98190.81;;;9.25;53.82
11912;BME280;6016;41.928;25.556;2024-01-16T10:57:39;98261.25;;;9.50;52.43
11912;BME280;6016;41.928;25.556;2024-01-16T11:00:09;98327.69;;;9.96;52.68
11912;BME280;6016;41.928;25.556;2024-01-16T11:02:43;98468.31;;;10.93;53.72
11912;BME280;6016;41.928;25.556;2024-01-16T11:05:17;98391.81;;;10.32;53.41
11912;BME280;6016;41.928;25.556;2024-01-16T11:07:44;98226.25;;;9.13;50.97
11912;BME280;6016;41.928;25.556;2024-01-16T11:10:13;98278.53;;;9.34;51.57
11912;BME280;6016;41.928;25.556;2024-01-16T11:12:41;98333.66;;;9.54;51.81
11912;BME280;6016;41.928;25.556;2024-01-16T11:15:10;98363.88;;;9.86;51.44
11912;BME280;6016;41.928;25.556;2024-01-16T11:17:38;98205.84;;;8.89;51.08
11912;BME280;6016;41.928;25.556;2024-01-16T11:20:09;98267.31;;;9.24;50.75
11912;BME280;6016;41.928;25.556;2024-01-16T11:22:40;98239.34;;;9.05;49.12
11912;BME280;6016;41.928;25.556;2024-01-16T11:25:10;98245.88;;;8.64;49.27
11912;BME280;6016;41.928;25.556;2024-01-16T11:27:40;98513.09;;;10.13;51.42
11912;BME280;6016;41.928;25.556;2024-01-16T11:30:09;98253.81;;;8.54;51.11
11912;BME280;6016;41.928;25.556;2024-01-16T11:32:37;98441.59;;;9.90;49.36
11912;BME280;6016;41.928;25.556;2024-01-16T11:35:06;98430.41;;;9.88;48.77
11912;BME280;6016;41.928;25.556;2024-01-16T11:37:34;98245.06;;;8.64;47.58
11912;BME280;6016;41.928;25.556;2024-01-16T11:40:25;98431.06;;;9.90;49.71
11912;BME280;6016;41.928;25.556;2024-01-16T11:42:55;98497.13;;;10.33;47.94
11912;BME280;6016;41.928;25.556;2024-01-16T11:45:47;98512.47;;;10.56;49.63
11912;BME280;6016;41.928;25.556;2024-01-16T11:48:16;98181.78;;;8.47;48.08
11912;BME280;6016;41.928;25.556;2024-01-16T11:50:43;98504.25;;;10.59;48.37
11912;BME280;6016;41.928;25.556;2024-01-16T11:53:11;98224.47;;;8.77;48.25
11912;BME280;6016;41.928;25.556;2024-01-16T11:55:49;98533.16;;;10.69;48.69
11912;BME280;6016;41.928;25.556;2024-01-16T11:58:31;98254.88;;;9.16;48.84
11912;BME280;6016;41.928;25.556;2024-01-16T12:01:05;98527.31;;;10.83;48.98
11912;BME280;6016;41.928;25.556;2024-01-16T12:03:33;98475.16;;;10.24;46.25
11912;BME280;6016;41.928;25.556;2024-01-16T12:06:00;98532.38;;;10.77;45.89
11912;BME280;6016;41.928;25.556;2024-01-16T12:08:28;98262.81;;;8.80;47.61
11912;BME280;6016;41.928;25.556;2024-01-16T12:10:55;98491.63;;;10.45;46.60
11912;BME280;6016;41.928;25.556;2024-01-16T12:13:24;98527.25;;;10.49;47.12
11912;BME280;6016;41.928;25.556;2024-01-16T12:15:59;98424.38;;;9.78;47.82
11912;BME280;6016;41.928;25.556;2024-01-16T12:18:26;98346.69;;;9.37;47.12
11912;BME280;6016;41.928;25.556;2024-01-16T12:20:54;98566.47;;;10.70;46.83
11912;BME280;6016;41.928;25.556;2024-01-16T12:23:21;98552.41;;;10.43;46.75
11912;BME280;6016;41.928;25.556;2024-01-16T12:25:52;98558.09;;;10.38;47.65
11912;BME280;6016;41.928;25.556;2024-01-16T12:28:20;98565.81;;;10.50;46.47
11912;BME280;6016;41.928;25.556;2024-01-16T12:30:50;98436.88;;;9.76;47.42
11912;BME280;6016;41.928;25.556;2024-01-16T12:33:22;98390.38;;;9.48;47.47
11912;BME280;6016;41.928;25.556;2024-01-16T12:35:49;98429.88;;;9.84;47.43
11912;BME280;6016;41.928;25.556;2024-01-16T12:38:17;98476.28;;;10.04;45.80
11912;BME280;6016;41.928;25.556;2024-01-16T12:40:47;98494.94;;;10.28;45.94
11912;BME280;6016;41.928;25.556;2024-01-16T12:43:17;98344.84;;;9.01;46.98
11912;BME280;6016;41.928;25.556;2024-01-16T12:45:45;98564.59;;;10.62;46.97
11912;BME280;6016;41.928;25.556;2024-01-16T12:48:14;98528.31;;;10.20;46.10
11912;BME280;6016;41.928;25.556;2024-01-16T12:50:41;98593.81;;;10.69;46.49
11912;BME280;6016;41.928;25.556;2024-01-16T12:53:08;98437.91;;;9.65;47.11
11912;BME280;6016;41.928;25.556;2024-01-16T12:55:37;98555.25;;;10.50;47.28
11912;BME280;6016;41.928;25.556;2024-01-16T12:58:14;98609.03;;;10.75;45.40
11912;BME280;6016;41.928;25.556;2024-01-16T13:00:42;98621.09;;;10.60;45.69
11912;BME280;6016;41.928;25.556;2024-01-16T13:03:16;98259.38;;;8.23;45.69
11912;BME280;6016;41.928;25.556;2024-01-16T13:05:44;98470.88;;;9.51;45.15
11912;BME280;6016;41.928;25.556;2024-01-16T13:08:19;98361.41;;;8.66;47.57
11912;BME280;6016;41.928;25.556;2024-01-16T13:10:47;98534.56;;;9.82;47.34
11912;BME280;6016;41.928;25.556;2024-01-16T13:13:14;98574.53;;;9.96;45.80
11912;BME280;6016;41.928;25.556;2024-01-16T13:15:43;98394.22;;;8.90;45.87